Time;durP1;ratioP1;P1;durP2;ratioP2;P2;SDS_P1;SDS_P2;PMS_P1;PMS_P2;Temp;Humidity;BMP_temperature;BMP_pressure;BME280_temperature;BME280_humidity;BME280_pressure;Samples;Min_cycle;Max_cycle;Signal;HPM_P1;HPM_P2
2023/01/07 00:01:44;;;;;;;24.53;8.83;;;5.20;99.90;;;;;;5090369;28;20311;-75
2023/01/07 00:04:15;;;;;;;36.17;9.27;;;5.20;99.90;;;;;;5090964;28;20209;-73
2023/01/07 00:06:49;;;;;;;28.83;8.20;;;5.20;99.90;;;;;;5090216;28;20622;-73
2023/01/07 00:09:18;;;;;;;34.97;9.03;;;5.20;99.90;;;;;;5101283;28;20211;-72
2023/01/07 00:11:47;;;;;;;27.37;7.97;;;5.20;99.90;;;;;;5090585;28;20290;-74
2023/01/07 00:14:16;;;;;;;36.73;9.37;;;5.20;99.90;;;;;;5094831;28;20244;-73
2023/01/07 00:16:45;;;;;;;20.07;7.67;;;5.20;99.90;;;;;;5097482;28;20238;-71
2023/01/07 00:19:16;;;;;;;42.07;9.10;;;5.20;99.90;;;;;;5090479;28;20241;-72
2023/01/07 00:21:46;;;;;;;28.47;8.20;;;5.20;99.90;;;;;;5088970;28;20618;-73
2023/01/07 00:24:15;;;;;;;27.57;7.93;;;5.20;99.90;;;;;;5090583;28;20192;-77
2023/01/07 00:26:46;;;;;;;28.30;8.33;;;5.30;99.90;;;;;;5090670;28;20192;-75
2023/01/07 00:29:15;;;;;;;25.10;9.50;;;5.20;99.90;;;;;;5090659;28;20219;-73
2023/01/07 00:31:44;;;;;;;23.43;8.13;;;5.30;99.90;;;;;;5089948;28;20656;-76
2023/01/07 00:34:14;;;;;;;25.63;7.63;;;5.30;99.90;;;;;;5092890;28;20295;-74
2023/01/07 00:36:44;;;;;;;26.97;8.27;;;5.30;99.90;;;;;;5105163;28;20199;-73
2023/01/07 00:39:17;;;;;;;27.67;8.70;;;5.30;99.90;;;;;;5103991;28;20283;-74
2023/01/07 00:44:31;;;;;;;32.93;8.23;;;5.30;99.90;;;;;;5090225;28;20202;-75
2023/01/07 00:47:00;;;;;;;21.93;7.33;;;5.30;99.90;;;;;;5090533;28;20201;-74
2023/01/07 00:49:29;;;;;;;34.87;10.30;;;5.30;99.90;;;;;;5090340;28;20199;-74
2023/01/07 00:51:58;;;;;;;28.17;7.70;;;5.40;99.90;;;;;;5090398;28;20203;-75
2023/01/07 00:54:29;;;;;;;22.53;7.93;;;5.40;99.90;;;;;;5088999;28;20306;-74
2023/01/07 00:56:58;;;;;;;27.00;8.50;;;5.40;99.90;;;;;;5089170;28;20229;-72
2023/01/07 00:59:27;;;;;;;19.30;7.47;;;5.30;99.90;;;;;;5088602;28;20668;-72
2023/01/07 01:01:56;;;;;;;22.80;6.53;;;5.30;99.90;;;;;;5089018;28;20660;-70
2023/01/07 01:04:25;;;;;;;38.17;8.40;;;5.40;99.90;;;;;;5091716;28;20192;-71
2023/01/07 01:06:54;;;;;;;29.20;7.60;;;5.40;99.90;;;;;;5098356;28;20204;-72
2023/01/07 01:09:25;;;;;;;24.17;7.53;;;5.40;99.90;;;;;;5100049;28;20264;-71
2023/01/07 01:11:55;;;;;;;24.07;9.57;;;5.30;99.90;;;;;;5093911;28;20566;-72
2023/01/07 01:14:24;;;;;;;28.37;6.90;;;5.40;99.90;;;;;;5094126;28;20205;-72
2023/01/07 01:16:53;;;;;;;26.93;6.70;;;5.40;99.90;;;;;;5093804;28;20233;-73
2023/01/07 01:19:22;;;;;;;25.47;7.80;;;5.30;99.90;;;;;;5092670;28;20295;-72
2023/01/07 01:21:51;;;;;;;19.63;6.73;;;5.30;99.90;;;;;;5014413;28;20233;-75
2023/01/07 01:24:20;;;;;;;21.90;7.63;;;5.30;99.90;;;;;;5014701;28;20619;-72
2023/01/07 01:26:49;;;;;;;23.63;8.10;;;5.30;99.90;;;;;;5031379;28;20232;-73
2023/01/07 01:29:19;;;;;;;26.67;7.77;;;5.30;99.90;;;;;;5014754;28;20242;-70
2023/01/07 01:31:49;;;;;;;43.57;16.37;;;5.30;99.90;;;;;;5014569;28;20743;-72
2023/01/07 01:34:18;;;;;;;40.97;8.33;;;5.30;99.90;;;;;;5031131;28;20214;-74
2023/01/07 01:36:47;;;;;;;24.17;7.13;;;5.40;99.90;;;;;;5014228;28;20197;-74
2023/01/07 01:39:16;;;;;;;23.40;7.57;;;5.40;99.90;;;;;;5024588;28;20204;-72
2023/01/07 01:41:45;;;;;;;27.60;7.80;;;5.40;99.90;;;;;;5092144;28;20628;-73
2023/01/07 01:44:39;;;;;;;27.30;6.93;;;5.30;99.90;;;;;;5093657;28;20236;-73
2023/01/07 01:47:19;;;;;;;27.00;7.37;;;5.40;99.90;;;;;;5092312;28;20223;-73
2023/01/07 01:49:54;;;;;;;27.87;7.30;;;5.40;99.90;;;;;;5091963;28;20253;-73
2023/01/07 01:52:29;;;;;;;25.07;8.73;;;5.40;99.90;;;;;;5091231;28;20204;-73
2023/01/07 01:55:01;;;;;;;28.63;8.60;;;5.40;99.90;;;;;;5093208;28;20953;-73
2023/01/07 01:57:32;;;;;;;21.13;6.93;;;5.40;99.90;;;;;;5091767;28;20204;-74
2023/01/07 02:00:07;;;;;;;21.37;7.33;;;5.40;99.90;;;;;;5093217;28;20194;-73
2023/01/07 02:02:55;;;;;;;21.30;7.53;;;5.40;99.90;;;;;;5093048;28;20693;-72
2023/01/07 02:05:28;;;;;;;22.07;7.20;;;5.50;99.90;;;;;;5091704;28;20548;-76
2023/01/07 02:07:57;;;;;;;25.00;7.10;;;5.40;99.90;;;;;;5092903;28;20200;-73
2023/01/07 02:10:27;;;;;;;22.30;7.30;;;5.50;99.90;;;;;;5091476;28;20662;-72
2023/01/07 02:13:16;;;;;;;24.90;6.87;;;5.50;99.90;;;;;;5091249;28;20225;-74
2023/01/07 02:15:54;;;;;;;27.77;6.90;;;5.50;99.90;;;;;;5092884;28;20206;-74
2023/01/07 02:18:44;;;;;;;27.90;9.53;;;5.50;99.90;;;;;;5091255;28;20234;-72
2023/01/07 02:21:24;;;;;;;28.47;8.80;;;5.40;99.90;;;;;;5091218;28;20234;-72
2023/01/07 02:24:28;;;;;;;22.10;7.20;;;5.50;99.90;;;;;;5088108;28;20584;-74
2023/01/07 02:27:33;;;;;;;17.00;7.63;;;5.40;99.90;;;;;;5071799;28;20617;-76
2023/01/07 02:30:30;;;;;;;26.27;7.20;;;5.40;99.90;;;;;;5034398;28;20221;-75
2023/01/07 02:33:14;;;;;;;18.70;7.40;;;5.30;99.90;;;;;;5034377;28;20246;-75
2023/01/07 02:35:59;;;;;;;24.10;8.13;;;5.30;99.90;;;;;;5051208;28;20488;-74
2023/01/07 02:38:39;;;;;;;18.33;7.97;;;5.30;99.90;;;;;;5048070;28;20544;-75
2023/01/07 02:41:16;;;;;;;21.97;7.97;;;5.30;99.90;;;;;;5057001;28;20228;-75
2023/01/07 02:43:53;;;;;;;24.63;8.83;;;5.30;99.90;;;;;;5091077;28;20249;-76
2023/01/07 02:46:27;;;;;;;19.03;7.37;;;5.30;99.90;;;;;;5073854;28;20372;-73
2023/01/07 02:49:00;;;;;;;22.47;6.70;;;5.30;99.90;;;;;;5073854;28;20714;-73
2023/01/07 02:51:36;;;;;;;24.57;8.00;;;5.30;99.90;;;;;;5073953;28;20208;-75
2023/01/07 02:54:07;;;;;;;18.77;7.37;;;5.40;99.90;;;;;;5073759;28;20210;-74
2023/01/07 02:56:50;;;;;;;21.80;7.87;;;5.40;99.90;;;;;;5060025;28;20208;-73
2023/01/07 02:59:44;;;;;;;24.27;7.47;;;5.40;99.90;;;;;;5033975;28;20209;-73
2023/01/07 03:02:43;;;;;;;24.43;8.10;;;5.50;99.90;;;;;;5033703;28;20220;-75
2023/01/07 03:05:41;;;;;;;20.80;8.17;;;5.50;99.90;;;;;;4991035;28;20266;-74
2023/01/07 03:08:34;;;;;;;18.50;7.23;;;5.50;99.90;;;;;;5010388;28;20302;-74
2023/01/07 03:11:05;;;;;;;23.37;7.80;;;5.40;99.90;;;;;;4993938;28;20291;-74
2023/01/07 03:13:38;;;;;;;23.90;7.30;;;5.40;99.90;;;;;;4994286;28;20198;-76
2023/01/07 03:16:12;;;;;;;21.03;7.87;;;5.50;99.90;;;;;;4994116;28;20709;-74
2023/01/07 03:18:45;;;;;;;19.23;7.60;;;5.50;99.90;;;;;;5010346;28;20645;-74
2023/01/07 03:21:19;;;;;;;20.40;7.97;;;5.50;99.90;;;;;;4993836;28;20235;-75
2023/01/07 03:23:53;;;;;;;15.67;8.00;;;5.50;99.90;;;;;;5010510;28;20212;-75
2023/01/07 03:26:26;;;;;;;20.50;7.27;;;5.50;99.90;;;;;;4993784;28;20206;-75
2023/01/07 03:28:56;;;;;;;25.53;8.07;;;5.50;99.90;;;;;;4993564;28;20308;-74
2023/01/07 03:31:26;;;;;;;18.03;7.53;;;5.50;99.90;;;;;;4993876;28;20293;-76
2023/01/07 03:33:59;;;;;;;16.53;7.03;;;5.60;99.90;;;;;;5010272;28;20229;-75
2023/01/07 03:36:34;;;;;;;15.87;7.67;;;5.60;99.90;;;;;;5010150;28;20202;-74
2023/01/07 03:39:04;;;;;;;24.17;7.33;;;5.60;99.90;;;;;;4993833;28;20237;-74
2023/01/07 03:44:20;;;;;;;17.90;6.90;;;5.60;99.90;;;;;;5070749;28;20603;-74
2023/01/07 03:46:49;;;;;;;30.97;10.43;;;5.60;99.90;;;;;;5071876;28;20294;-73
2023/01/07 03:49:18;;;;;;;20.53;8.67;;;5.60;99.90;;;;;;5070613;28;20294;-74
2023/01/07 03:51:49;;;;;;;18.23;6.90;;;5.70;99.90;;;;;;5070442;28;20212;-73
2023/01/07 03:54:18;;;;;;;25.83;8.50;;;5.70;99.90;;;;;;5071917;28;20225;-73
2023/01/07 03:56:47;;;;;;;23.93;7.83;;;5.60;99.90;;;;;;5071773;28;20231;-74
2023/01/07 03:59:16;;;;;;;18.47;7.77;;;5.60;99.90;;;;;;5070205;28;20265;-74
2023/01/07 04:01:45;;;;;;;20.97;7.87;;;5.60;99.90;;;;;;5071495;28;20213;-75
2023/01/07 04:04:14;;;;;;;27.47;9.10;;;5.60;99.90;;;;;;5071675;28;20228;-74
2023/01/07 04:06:43;;;;;;;22.13;7.57;;;5.60;99.90;;;;;;5070244;28;21005;-74
2023/01/07 04:09:14;;;;;;;20.83;7.53;;;5.60;99.90;;;;;;5103949;28;20249;-73
2023/01/07 04:11:43;;;;;;;22.27;8.40;;;5.60;99.90;;;;;;5069930;28;20209;-74
2023/01/07 04:14:12;;;;;;;15.53;7.10;;;5.70;99.90;;;;;;5070014;28;20203;-73
2023/01/07 04:16:41;;;;;;;15.33;7.13;;;5.70;99.90;;;;;;5071394;28;20251;-73
2023/01/07 04:19:10;;;;;;;27.83;7.77;;;5.80;99.90;;;;;;5069837;28;20235;-74
2023/01/07 04:21:39;;;;;;;17.70;7.47;;;5.80;99.90;;;;;;5070137;28;20248;-73
2023/01/07 04:24:09;;;;;;;21.63;6.50;;;5.80;99.90;;;;;;5070236;28;20200;-74
2023/01/07 04:26:39;;;;;;;19.10;7.33;;;5.90;99.90;;;;;;5087668;28;20204;-74
2023/01/07 04:29:08;;;;;;;17.03;7.73;;;5.90;99.90;;;;;;5096573;28;20661;-74
2023/01/07 04:31:37;;;;;;;17.27;7.37;;;5.90;99.90;;;;;;5090448;28;20228;-74
2023/01/07 04:34:06;;;;;;;18.73;6.93;;;5.90;99.90;;;;;;5090474;28;20253;-74
2023/01/07 04:36:35;;;;;;;27.10;8.27;;;5.90;99.90;;;;;;5090317;28;20206;-77
2023/01/07 04:39:05;;;;;;;18.17;6.80;;;6.00;99.90;;;;;;5090756;28;20207;-72
2023/01/07 04:41:34;;;;;;;20.70;7.43;;;5.90;99.90;;;;;;5094111;28;20203;-73
2023/01/07 04:44:06;;;;;;;17.77;7.03;;;5.90;99.90;;;;;;5094443;28;20200;-73
2023/01/07 04:46:35;;;;;;;13.07;6.73;;;5.80;99.90;;;;;;5095624;28;20199;-73
2023/01/07 04:49:04;;;;;;;19.33;6.63;;;5.80;99.90;;;;;;5094144;28;20200;-73
2023/01/07 04:51:33;;;;;;;24.10;7.20;;;5.80;99.90;;;;;;5094153;28;20202;-73
2023/01/07 04:54:03;;;;;;;20.20;7.20;;;5.80;99.90;;;;;;5094324;28;20227;-72
2023/01/07 04:56:32;;;;;;;27.03;6.83;;;5.80;99.90;;;;;;5094922;28;20265;-73
2023/01/07 04:59:01;;;;;;;18.83;7.07;;;5.80;99.90;;;;;;5108610;28;20268;-73
2023/01/07 05:01:32;;;;;;;15.27;6.77;;;5.80;99.90;;;;;;5095498;28;20196;-73
2023/01/07 05:04:02;;;;;;;29.57;7.30;;;5.90;99.90;;;;;;5094057;28;20204;-73
2023/01/07 05:06:32;;;;;;;19.43;7.03;;;5.80;99.90;;;;;;5093924;28;20205;-73
2023/01/07 05:09:01;;;;;;;19.20;6.10;;;5.80;99.90;;;;;;5093876;28;20286;-74
2023/01/07 05:11:30;;;;;;;15.77;7.00;;;5.80;99.90;;;;;;5093615;28;20291;-74
2023/01/07 05:14:00;;;;;;;13.93;6.13;;;5.70;99.90;;;;;;5093876;28;20295;-74
2023/01/07 05:16:33;;;;;;;20.63;6.33;;;5.70;99.90;;;;;;5093799;28;20207;-75
2023/01/07 05:19:07;;;;;;;12.47;6.37;;;5.70;99.90;;;;;;5091009;28;20690;-74
2023/01/07 05:21:39;;;;;;;16.67;7.17;;;5.70;99.90;;;;;;5087016;28;20549;-75
2023/01/07 05:24:09;;;;;;;18.90;6.63;;;5.70;99.90;;;;;;5103523;28;20294;-75
2023/01/07 05:26:37;;;;;;;16.53;6.27;;;5.80;99.90;;;;;;5093560;28;20727;-75
2023/01/07 05:29:07;;;;;;;21.07;8.93;;;5.80;99.90;;;;;;5093415;28;20203;-74
2023/01/07 05:31:37;;;;;;;25.03;7.60;;;5.80;99.90;;;;;;5094757;28;20203;-75
2023/01/07 05:34:06;;;;;;;19.03;9.63;;;5.80;99.90;;;;;;5094667;28;20720;-75
2023/01/07 05:36:35;;;;;;;21.93;8.50;;;5.80;99.90;;;;;;5093327;28;20218;-74
2023/01/07 05:39:05;;;;;;;25.40;9.40;;;5.60;99.90;;;;;;5093388;28;20188;-74
2023/01/07 05:41:34;;;;;;;22.10;9.70;;;5.50;99.90;;;;;;5094511;28;20594;-75
2023/01/07 05:44:03;;;;;;;21.87;10.50;;;5.40;99.90;;;;;;5093158;28;21106;-74
2023/01/07 05:46:32;;;;;;;21.50;9.63;;;5.30;99.90;;;;;;5094443;28;20207;-74
2023/01/07 05:49:03;;;;;;;17.43;8.93;;;5.30;99.90;;;;;;5094341;28;20231;-74
2023/01/07 05:51:32;;;;;;;19.30;8.97;;;5.30;99.90;;;;;;5094053;28;20264;-74
2023/01/07 05:54:00;;;;;;;21.07;9.43;;;5.10;99.90;;;;;;5094436;28;20202;-74
2023/01/07 05:56:30;;;;;;;28.53;10.67;;;5.10;99.90;;;;;;5094192;28;20210;-74
2023/01/07 05:58:59;;;;;;;25.27;8.63;;;5.10;99.90;;;;;;5094196;28;20188;-73
2023/01/07 06:01:28;;;;;;;27.20;8.70;;;5.10;99.90;;;;;;5094154;28;20240;-73
2023/01/07 06:03:57;;;;;;;31.03;9.57;;;5.10;99.90;;;;;;5094251;28;20574;-76
2023/01/07 06:06:27;;;;;;;22.40;8.33;;;5.10;99.90;;;;;;5094093;28;20200;-74
2023/01/07 06:08:57;;;;;;;24.23;8.17;;;5.00;99.90;;;;;;5094018;28;20283;-75
2023/01/07 06:11:25;;;;;;;16.70;9.40;;;5.10;99.90;;;;;;5093850;28;20245;-74
2023/01/07 06:13:54;;;;;;;23.00;10.10;;;5.00;99.90;;;;;;5093899;28;20556;-75
2023/01/07 06:16:23;;;;;;;25.53;12.50;;;5.00;99.90;;;;;;5093900;28;20253;-74
2023/01/07 06:18:52;;;;;;;26.97;11.27;;;5.00;99.90;;;;;;5093535;28;20255;-74
2023/01/07 06:21:21;;;;;;;22.90;11.87;;;4.90;99.90;;;;;;5094041;28;20203;-74
2023/01/07 06:23:51;;;;;;;24.37;12.00;;;4.90;99.90;;;;;;5093894;28;20220;-74
2023/01/07 06:26:20;;;;;;;34.53;14.10;;;4.80;99.90;;;;;;5092787;28;20193;-74
2023/01/07 06:28:51;;;;;;;28.63;12.43;;;4.80;99.90;;;;;;5093549;28;20207;-74
2023/01/07 06:31:20;;;;;;;33.53;14.93;;;4.70;99.90;;;;;;5093729;28;20585;-75
2023/01/07 06:33:49;;;;;;;40.37;18.70;;;4.60;99.90;;;;;;5093726;28;20191;-74
2023/01/07 06:36:17;;;;;;;62.93;35.00;;;4.60;99.90;;;;;;5093626;28;20190;-75
2023/01/07 06:38:46;;;;;;;40.50;18.17;;;4.50;99.90;;;;;;5093534;28;20669;-75
2023/01/07 06:41:17;;;;;;;34.07;14.67;;;4.30;99.90;;;;;;5093314;28;20665;-74
2023/01/07 06:43:45;;;;;;;43.33;26.97;;;4.40;99.90;;;;;;5093393;28;20218;-75
2023/01/07 06:46:14;;;;;;;74.23;56.63;;;4.30;99.90;;;;;;5093452;28;20333;-75
2023/01/07 06:48:43;;;;;;;51.47;34.23;;;4.30;99.90;;;;;;5093139;28;20198;-74
2023/01/07 06:51:12;;;;;;;82.63;50.40;;;4.30;99.90;;;;;;5093158;28;20207;-73
2023/01/07 06:53:41;;;;;;;39.13;23.50;;;4.20;99.90;;;;;;5092308;28;20595;-73
2023/01/07 06:56:10;;;;;;;45.47;21.93;;;4.20;99.90;;;;;;5093100;28;20206;-73
2023/01/07 06:58:40;;;;;;;45.40;24.50;;;4.10;99.90;;;;;;5093198;28;20196;-77
2023/01/07 07:01:09;;;;;;;41.27;19.63;;;4.20;99.90;;;;;;5093160;28;20610;-75
2023/01/07 07:03:38;;;;;;;39.83;19.47;;;4.10;99.90;;;;;;5092557;28;20241;-74
2023/01/07 07:06:07;;;;;;;39.83;15.53;;;4.10;99.90;;;;;;5092923;28;20206;-76
2023/01/07 07:08:36;;;;;;;32.23;13.47;;;4.00;99.90;;;;;;5092923;28;20327;-75
2023/01/07 07:11:05;;;;;;;45.53;18.17;;;4.00;99.90;;;;;;5092868;28;20609;-76
2023/01/07 07:13:36;;;;;;;47.80;20.07;;;4.00;99.90;;;;;;5096867;28;20197;-77
2023/01/07 07:16:07;;;;;;;38.77;15.97;;;4.00;99.90;;;;;;5097983;28;20187;-74
2023/01/07 07:18:36;;;;;;;38.67;12.53;;;3.90;99.90;;;;;;5092536;28;20674;-77
2023/01/07 07:21:08;;;;;;;23.13;11.67;;;3.90;99.90;;;;;;5092826;28;20197;-74
2023/01/07 07:23:37;;;;;;;24.70;11.10;;;3.90;99.90;;;;;;5092559;28;20699;-75
2023/01/07 07:26:06;;;;;;;37.03;14.23;;;3.90;99.90;;;;;;5092663;28;20196;-76
2023/01/07 07:28:35;;;;;;;35.30;13.90;;;3.90;99.90;;;;;;5093134;28;20285;-75
2023/01/07 07:31:06;;;;;;;32.70;13.23;;;3.80;99.90;;;;;;5086817;28;20227;-75
2023/01/07 07:33:35;;;;;;;43.77;24.20;;;3.80;99.90;;;;;;5092346;28;20735;-77
2023/01/07 07:36:05;;;;;;;30.23;14.90;;;3.80;99.90;;;;;;5096568;28;20306;-75
2023/01/07 07:38:34;;;;;;;43.00;23.77;;;3.80;99.90;;;;;;5105203;28;20202;-76
2023/01/07 07:41:03;;;;;;;26.90;15.80;;;3.80;99.90;;;;;;5107611;28;20739;-74
2023/01/07 07:43:31;;;;;;;33.40;17.00;;;3.80;99.90;;;;;;5092076;28;20245;-74
2023/01/07 07:46:00;;;;;;;27.93;14.30;;;3.80;99.90;;;;;;5091962;28;20207;-73
2023/01/07 07:48:31;;;;;;;36.27;17.90;;;3.80;99.90;;;;;;5092427;28;20207;-73
2023/01/07 07:50:59;;;;;;;30.13;14.10;;;3.80;99.90;;;;;;5091928;28;20198;-74
2023/01/07 07:53:28;;;;;;;28.60;16.00;;;3.80;99.90;;;;;;5092486;28;20225;-73
2023/01/07 07:55:57;;;;;;;27.33;16.83;;;3.90;99.90;;;;;;5092480;28;20250;-73
2023/01/07 07:58:26;;;;;;;36.30;18.93;;;4.00;99.90;;;;;;5092467;28;20199;-73
2023/01/07 08:00:55;;;;;;;28.40;15.00;;;4.00;99.90;;;;;;5092083;28;20597;-74
2023/01/07 08:03:24;;;;;;;38.60;24.90;;;4.00;99.90;;;;;;5094417;28;20192;-74
2023/01/07 08:05:54;;;;;;;47.60;33.97;;;3.90;99.90;;;;;;5103151;28;20218;-75
2023/01/07 08:08:23;;;;;;;34.90;23.13;;;4.00;99.90;;;;;;5112781;28;20193;-75
2023/01/07 08:10:55;;;;;;;34.33;21.33;;;4.00;99.90;;;;;;5092167;28;20207;-75
2023/01/07 08:13:24;;;;;;;30.37;19.20;;;4.20;99.90;;;;;;5096882;28;20206;-75
2023/01/07 08:15:53;;;;;;;33.70;19.40;;;4.30;99.90;;;;;;5090252;28;20264;-75
2023/01/07 08:18:22;;;;;;;27.83;15.27;;;4.30;99.90;;;;;;5091845;28;20247;-74
2023/01/07 08:20:51;;;;;;;32.97;18.70;;;4.30;99.90;;;;;;5092512;28;20200;-74
2023/01/07 08:23:22;;;;;;;29.90;18.47;;;4.20;99.90;;;;;;5103124;28;20195;-75
2023/01/07 08:25:51;;;;;;;26.60;19.50;;;4.20;99.90;;;;;;5092070;28;20244;-73
2023/01/07 08:28:20;;;;;;;32.53;17.73;;;4.30;99.90;;;;;;5092014;28;20193;-74
2023/01/07 08:30:48;;;;;;;48.67;25.73;;;4.20;99.90;;;;;;5091924;28;20276;-74
2023/01/07 08:33:17;;;;;;;40.03;22.07;;;4.20;99.90;;;;;;5091733;28;20607;-74
2023/01/07 08:35:46;;;;;;;32.27;19.40;;;4.20;99.90;;;;;;5091988;28;20203;-74
2023/01/07 08:38:15;;;;;;;59.33;35.70;;;4.30;99.90;;;;;;5103278;28;20670;-75
2023/01/07 08:40:45;;;;;;;54.07;34.33;;;4.40;99.90;;;;;;5091522;28;20223;-75
2023/01/07 08:43:14;;;;;;;45.17;31.27;;;4.50;99.90;;;;;;5091842;28;20195;-73
2023/01/07 08:45:48;;;;;;;45.87;28.67;;;4.60;99.90;;;;;;5091843;28;20773;-75
2023/01/07 08:48:17;;;;;;;50.13;30.20;;;4.70;99.90;;;;;;5091304;28;20266;-75
2023/01/07 08:50:50;;;;;;;49.93;32.90;;;4.90;99.90;;;;;;5091781;28;20982;-75
2023/01/07 08:53:20;;;;;;;58.03;37.40;;;5.00;99.90;;;;;;5091765;28;20214;-75
2023/01/07 08:55:50;;;;;;;41.97;29.37;;;5.10;99.90;;;;;;5091787;28;20206;-75
2023/01/07 08:58:19;;;;;;;41.13;21.50;;;5.30;99.90;;;;;;5091680;28;20199;-76
2023/01/07 09:00:48;;;;;;;40.07;26.30;;;5.40;99.90;;;;;;5091607;28;20276;-75
2023/01/07 09:03:17;;;;;;;44.13;25.73;;;5.40;99.90;;;;;;5091347;28;20289;-74
2023/01/07 09:05:47;;;;;;;48.73;32.80;;;5.40;99.90;;;;;;5091564;28;20215;-74
2023/01/07 09:08:16;;;;;;;46.07;30.70;;;5.40;99.90;;;;;;5092034;28;20567;-74
2023/01/07 09:10:44;;;;;;;37.47;25.73;;;5.50;99.90;;;;;;5096746;28;20194;-74
2023/01/07 09:13:15;;;;;;;38.53;25.63;;;5.60;99.90;;;;;;5107724;28;20196;-74
2023/01/07 09:15:44;;;;;;;36.53;26.13;;;5.70;99.90;;;;;;5112056;28;20202;-74
2023/01/07 09:18:13;;;;;;;38.90;25.07;;;5.70;99.90;;;;;;5111407;28;20222;-75
2023/01/07 09:20:42;;;;;;;42.97;29.40;;;5.80;99.90;;;;;;5111947;28;20198;-74
2023/01/07 09:23:11;;;;;;;28.27;17.60;;;5.80;99.90;;;;;;5111746;28;20220;-74
2023/01/07 09:25:41;;;;;;;20.33;13.70;;;5.80;99.90;;;;;;5113171;28;20250;-73
2023/01/07 09:28:09;;;;;;;26.20;16.17;;;5.80;99.90;;;;;;5115595;28;20605;-74
2023/01/07 09:30:40;;;;;;;22.40;11.60;;;5.90;99.90;;;;;;5115652;28;20252;-74
2023/01/07 09:33:09;;;;;;;25.80;16.00;;;6.00;99.90;;;;;;5114873;28;20195;-74
2023/01/07 09:35:38;;;;;;;23.50;12.73;;;6.10;99.90;;;;;;5115605;28;20244;-73
2023/01/07 09:38:06;;;;;;;23.97;14.07;;;6.20;99.90;;;;;;5115411;28;20272;-73
2023/01/07 09:40:38;;;;;;;26.83;14.97;;;6.40;99.90;;;;;;5107405;28;20196;-73
2023/01/07 09:43:14;;;;;;;16.60;9.67;;;6.50;99.90;;;;;;5094446;28;20623;-75
2023/01/07 09:45:48;;;;;;;19.20;10.53;;;6.50;99.90;;;;;;5095071;28;20287;-73
2023/01/07 09:48:23;;;;;;;13.10;8.03;;;6.30;99.90;;;;;;5094499;28;20631;-74
2023/01/07 09:50:57;;;;;;;12.57;8.37;;;6.30;99.90;;;;;;5093083;28;20827;-77
2023/01/07 09:53:30;;;;;;;18.37;8.13;;;6.30;99.90;;;;;;5094307;28;20193;-76
2023/01/07 09:56:02;;;;;;;14.87;8.07;;;6.40;99.90;;;;;;5094378;28;20312;-75
2023/01/07 09:58:43;;;;;;;19.10;8.23;;;6.40;99.90;;;;;;5094111;28;20206;-75
2023/01/07 10:01:23;;;;;;;18.87;8.10;;;6.40;99.90;;;;;;5094408;28;20286;-76
2023/01/07 10:04:02;;;;;;;17.53;8.90;;;6.30;99.90;;;;;;5094308;28;20261;-76
2023/01/07 10:06:40;;;;;;;19.97;8.17;;;6.30;99.90;;;;;;5094206;28;20212;-73
2023/01/07 10:09:23;;;;;;;13.93;7.83;;;6.40;99.90;;;;;;5094307;28;20317;-75
2023/01/07 10:12:01;;;;;;;19.33;8.33;;;6.30;99.90;;;;;;5092842;28;20668;-79
2023/01/07 10:15:07;;;;;;;15.10;8.43;;;6.40;99.90;;;;;;5093902;28;20685;-77
2023/01/07 10:18:04;;;;;;;15.07;8.30;;;6.40;99.90;;;;;;5093621;28;20245;-75
2023/01/07 10:20:43;;;;;;;24.07;7.93;;;6.30;99.90;;;;;;5011362;28;20199;-73
2023/01/07 10:23:16;;;;;;;22.63;8.83;;;6.30;99.90;;;;;;5011393;28;20202;-75
2023/01/07 10:25:50;;;;;;;19.73;8.73;;;6.40;99.90;;;;;;5002457;28;20281;-71
2023/01/07 10:28:25;;;;;;;15.27;9.00;;;6.40;99.90;;;;;;4995824;28;20218;-70
2023/01/07 10:30:54;;;;;;;16.80;8.80;;;6.60;99.90;;;;;;4991543;28;21016;-75
2023/01/07 10:33:28;;;;;;;15.47;9.20;;;6.80;99.90;;;;;;4991877;28;20200;-75
2023/01/07 10:36:09;;;;;;;17.17;8.90;;;6.90;99.90;;;;;;4991762;28;20259;-71
2023/01/07 10:38:42;;;;;;;16.43;9.23;;;6.90;99.90;;;;;;4991622;28;20582;-68
2023/01/07 10:41:18;;;;;;;20.30;10.10;;;7.00;99.90;;;;;;4991385;28;20207;-72
2023/01/07 10:44:02;;;;;;;22.60;10.73;;;7.00;99.90;;;;;;4991287;28;20210;-72
2023/01/07 10:46:45;;;;;;;18.73;8.60;;;7.10;99.90;;;;;;4991364;28;20224;-74
2023/01/07 10:49:33;;;;;;;25.67;11.03;;;7.10;99.90;;;;;;4991482;28;20566;-74
2023/01/07 10:52:28;;;;;;;19.83;9.30;;;7.10;99.90;;;;;;4991465;28;20252;-74
2023/01/07 10:55:24;;;;;;;21.40;11.10;;;7.20;99.90;;;;;;4933311;29;20217;-75
2023/01/07 10:57:52;;;;;;;23.03;9.70;;;7.30;99.90;;;;;;4992633;28;20656;-76
2023/01/07 11:00:24;;;;;;;20.70;11.00;;;7.40;99.90;;;;;;5030772;28;20283;-78
2023/01/07 11:02:56;;;;;;;24.77;10.67;;;7.40;99.90;;;;;;5030468;28;20214;-77
2023/01/07 11:05:34;;;;;;;21.83;10.83;;;7.30;99.90;;;;;;5030253;28;20592;-76
2023/01/07 11:08:05;;;;;;;20.67;10.80;;;7.30;99.90;;;;;;5030455;28;20206;-73
2023/01/07 11:10:36;;;;;;;20.93;11.50;;;7.50;99.90;;;;;;5030421;28;20209;-73
2023/01/07 11:13:13;;;;;;;18.57;11.10;;;7.70;99.90;;;;;;5030133;28;20217;-74
2023/01/07 11:15:45;;;;;;;24.53;11.17;;;7.60;99.90;;;;;;5030250;28;20224;-72
2023/01/07 11:18:20;;;;;;;17.87;10.97;;;7.60;99.90;;;;;;5029664;28;20253;-73
2023/01/07 11:20:52;;;;;;;19.90;10.97;;;7.60;99.90;;;;;;5030144;28;20194;-72
2023/01/07 11:23:32;;;;;;;19.03;11.60;;;7.60;99.90;;;;;;5030178;28;20288;-72
2023/01/07 11:26:14;;;;;;;21.50;12.53;;;7.60;99.90;;;;;;5029872;28;20217;-71
2023/01/07 11:28:50;;;;;;;17.53;10.60;;;7.60;99.90;;;;;;5029914;28;20198;-73
2023/01/07 11:31:20;;;;;;;20.87;11.83;;;7.40;99.90;;;;;;5040269;28;20278;-74
2023/01/07 11:33:52;;;;;;;20.87;11.43;;;7.10;99.90;;;;;;5071917;28;20288;-74
2023/01/07 11:36:43;;;;;;;18.80;11.23;;;6.90;99.90;;;;;;5072098;28;20193;-73
2023/01/07 11:39:18;;;;;;;21.27;12.30;;;7.00;99.90;;;;;;5071896;28;20193;-74
2023/01/07 11:41:56;;;;;;;23.03;12.10;;;7.30;99.90;;;;;;5077984;28;20204;-73
2023/01/07 11:44:26;;;;;;;21.13;11.83;;;7.70;99.90;;;;;;5079883;28;20430;-72
2023/01/07 11:46:55;;;;;;;20.03;11.80;;;8.00;99.90;;;;;;5091944;28;20220;-74
2023/01/07 11:49:27;;;;;;;24.53;12.30;;;7.90;99.90;;;;;;5088111;28;20206;-73
2023/01/07 11:51:58;;;;;;;18.30;12.87;;;8.00;99.90;;;;;;5089993;28;20219;-75
2023/01/07 11:54:30;;;;;;;26.27;13.90;;;8.10;99.90;;;;;;5090354;28;20279;-76
2023/01/07 11:57:12;;;;;;;20.70;12.10;;;8.10;99.90;;;;;;5091032;28;20209;-72
2023/01/07 11:59:41;;;;;;;19.53;12.80;;;8.20;99.90;;;;;;5092064;28;20196;-75
2023/01/07 12:02:25;;;;;;;20.03;12.20;;;8.10;99.90;;;;;;5091768;28;20193;-73
2023/01/07 12:05:18;;;;;;;19.50;12.50;;;8.10;99.90;;;;;;5091752;28;20192;-74
2023/01/07 12:07:50;;;;;;;18.47;12.07;;;8.00;99.90;;;;;;5091604;28;20238;-74
2023/01/07 12:10:33;;;;;;;20.13;12.10;;;7.70;99.90;;;;;;5091415;28;20562;-73
2023/01/07 12:13:05;;;;;;;24.13;12.37;;;7.50;99.90;;;;;;5091453;28;20199;-74
2023/01/07 12:15:45;;;;;;;23.67;14.73;;;7.30;99.90;;;;;;5091510;28;20192;-75
2023/01/07 12:18:41;;;;;;;22.23;12.50;;;7.30;99.90;;;;;;5091321;28;20307;-72
2023/01/07 12:21:27;;;;;;;33.00;17.23;;;7.20;99.90;;;;;;5091144;28;20294;-74
2023/01/07 12:24:11;;;;;;;58.87;28.93;;;7.30;99.90;;;;;;5091662;28;20204;-73
2023/01/07 12:26:47;;;;;;;24.20;15.40;;;7.40;99.90;;;;;;5085047;28;20212;-76
2023/01/07 12:29:26;;;;;;;36.40;21.57;;;7.40;99.90;;;;;;5091311;28;20211;-76
2023/01/07 12:32:10;;;;;;;26.30;15.43;;;7.50;99.90;;;;;;5091252;28;20208;-73
2023/01/07 12:34:49;;;;;;;26.40;13.10;;;7.60;99.90;;;;;;5091414;28;20295;-76
2023/01/07 12:37:30;;;;;;;18.50;13.10;;;7.70;99.90;;;;;;5089922;28;20638;-76
2023/01/07 12:40:16;;;;;;;21.63;15.40;;;7.90;99.90;;;;;;5091119;28;20193;-73
2023/01/07 12:42:50;;;;;;;25.67;15.10;;;8.10;99.90;;;;;;5091213;28;20208;-74
2023/01/07 12:45:27;;;;;;;28.07;15.83;;;8.20;99.90;;;;;;5091116;28;20197;-76
2023/01/07 12:48:01;;;;;;;24.23;13.60;;;8.10;99.90;;;;;;5091677;28;20247;-76
2023/01/07 12:50:37;;;;;;;20.57;12.17;;;8.00;99.90;;;;;;5090887;28;20274;-76
2023/01/07 12:53:13;;;;;;;19.90;11.30;;;8.00;99.90;;;;;;5091234;28;20556;-76
2023/01/07 12:55:47;;;;;;;17.80;11.97;;;8.10;99.90;;;;;;5091264;28;20227;-75
2023/01/07 12:58:24;;;;;;;20.60;12.13;;;8.10;99.90;;;;;;5090877;28;20206;-74
2023/01/07 13:00:59;;;;;;;21.33;12.67;;;8.10;99.90;;;;;;5086158;28;20189;-76
2023/01/07 13:03:45;;;;;;;22.10;12.70;;;7.90;99.90;;;;;;5076296;28;20207;-72
2023/01/07 13:06:20;;;;;;;20.13;11.80;;;8.00;99.90;;;;;;5074755;28;20572;-78
2023/01/07 13:08:57;;;;;;;23.93;12.73;;;7.90;99.90;;;;;;5074462;28;20201;-75
2023/01/07 13:14:26;;;;;;;19.47;12.73;;;7.60;99.90;;;;;;5074666;28;20193;-74
2023/01/07 13:17:01;;;;;;;18.83;12.80;;;7.70;99.90;;;;;;5074472;28;20201;-73
2023/01/07 13:19:31;;;;;;;19.97;12.50;;;7.50;99.90;;;;;;5074416;28;20214;-71
2023/01/07 13:22:00;;;;;;;21.63;13.47;;;7.30;99.90;;;;;;5073876;28;20730;-69